Time;durP1;ratioP1;P1;durP2;ratioP2;P2;SDS_P1;SDS_P2;PMS_P1;PMS_P2;Temp;Humidity;BMP_temperature;BMP_pressure;BME280_temperature;BME280_humidity;BME280_pressure;Samples;Min_cycle;Max_cycle;Signal;HPM_P1;HPM_P2
2023/02/08 00:00:38;;;;;;;20.73;11.10;;;;;;;;;;5038734;28;20272;-75
2023/02/08 00:03:04;;;;;;;26.60;12.50;;;;;;;;;;5040680;28;20279;-75
2023/02/08 00:05:33;;;;;;;21.60;11.60;;;;;;;;;;5040535;28;20288;-75
2023/02/08 00:07:59;;;;;;;25.60;11.90;;;;;;;;;;5040536;28;20268;-75
2023/02/08 00:10:25;;;;;;;20.20;10.77;;;;;;;;;;5038775;28;20281;-76
2023/02/08 00:12:51;;;;;;;20.37;10.77;;;;;;;;;;5040070;28;20324;-75
2023/02/08 00:15:17;;;;;;;20.60;10.50;;;;;;;;;;5039933;28;20297;-77
2023/02/08 00:17:43;;;;;;;19.53;11.27;;;;;;;;;;5041895;28;20276;-76
2023/02/08 00:20:10;;;;;;;17.47;10.57;;;;;;;;;;5037770;28;20291;-75
2023/02/08 00:22:38;;;;;;;23.77;11.30;;;;;;;;;;5038826;28;20265;-75
2023/02/08 00:25:05;;;;;;;17.43;10.60;;;;;;;;;;5039460;28;20772;-76
2023/02/08 00:27:31;;;;;;;18.60;10.17;;;;;;;;;;5024822;28;20712;-77
2023/02/08 00:29:57;;;;;;;23.07;12.73;;;;;;;;;;5038258;28;20276;-74
2023/02/08 00:32:23;;;;;;;23.53;10.87;;;;;;;;;;5038624;28;20338;-75
2023/02/08 00:34:51;;;;;;;19.87;10.83;;;;;;;;;;5041997;28;20300;-75
2023/02/08 00:37:18;;;;;;;22.37;11.10;;;;;;;;;;5039980;28;20026;-76
2023/02/08 00:39:43;;;;;;;24.03;11.77;;;;;;;;;;5024650;28;20310;-75
2023/02/08 00:42:09;;;;;;;19.70;10.97;;;;;;;;;;5039049;28;20283;-74
2023/02/08 00:44:35;;;;;;;23.40;11.80;;;;;;;;;;5024739;28;20048;-75
2023/02/08 00:47:01;;;;;;;21.97;11.40;;;;;;;;;;5022890;28;20053;-75
2023/02/08 00:49:27;;;;;;;17.87;10.77;;;;;;;;;;5039325;28;20292;-77
2023/02/08 00:51:53;;;;;;;17.97;10.83;;;;;;;;;;5025408;28;20377;-77
2023/02/08 00:54:20;;;;;;;18.23;9.97;;;;;;;;;;5039280;28;20029;-75
2023/02/08 00:56:46;;;;;;;22.17;10.23;;;;;;;;;;5022651;28;20029;-77
2023/02/08 00:59:12;;;;;;;21.53;9.87;;;;;;;;;;5040134;28;20418;-75
2023/02/08 01:01:38;;;;;;;19.27;10.10;;;;;;;;;;5039954;28;20363;-75
2023/02/08 01:04:05;;;;;;;17.63;9.73;;;;;;;;;;5039419;28;20129;-75
2023/02/08 01:06:31;;;;;;;17.37;10.23;;;;;;;;;;5023780;28;20276;-76
2023/02/08 01:09:01;;;;;;;21.47;9.90;;;;;;;;;;5024855;28;20280;-76
2023/02/08 01:11:27;;;;;;;24.27;10.57;;;;;;;;;;5022783;28;20349;-77
2023/02/08 01:13:56;;;;;;;18.40;9.57;;;;;;;;;;5037323;28;20379;-77
2023/02/08 01:16:24;;;;;;;17.60;10.13;;;;;;;;;;5039104;28;20292;-74
2023/02/08 01:18:51;;;;;;;19.23;10.97;;;;;;;;;;5023859;28;20284;-76
2023/02/08 01:21:18;;;;;;;19.67;10.53;;;;;;;;;;5037780;28;21204;-77
2023/02/08 01:23:44;;;;;;;22.23;11.83;;;;;;;;;;5022911;28;20346;-76
2023/02/08 01:26:11;;;;;;;21.27;11.30;;;;;;;;;;5040339;28;20280;-75
2023/02/08 01:28:38;;;;;;;19.47;10.63;;;;;;;;;;5023607;28;20339;-76
2023/02/08 01:31:08;;;;;;;17.57;9.97;;;;;;;;;;5038782;28;20303;-76
2023/02/08 01:33:34;;;;;;;20.77;10.50;;;;;;;;;;5038120;28;20359;-77
2023/02/08 01:36:01;;;;;;;21.07;10.70;;;;;;;;;;5020646;28;20292;-76
2023/02/08 01:38:27;;;;;;;19.60;9.60;;;;;;;;;;5022090;28;20295;-76
2023/02/08 01:40:53;;;;;;;25.17;10.17;;;;;;;;;;5038852;28;20268;-75
2023/02/08 01:43:22;;;;;;;20.43;10.97;;;;;;;;;;5023464;28;20291;-76
2023/02/08 01:45:48;;;;;;;20.20;11.70;;;;;;;;;;5024003;28;20290;-76
2023/02/08 01:48:18;;;;;;;27.03;11.07;;;;;;;;;;5038067;28;20363;-75
2023/02/08 01:50:49;;;;;;;20.07;10.63;;;;;;;;;;5038851;28;20822;-77
2023/02/08 01:53:15;;;;;;;20.57;11.13;;;;;;;;;;5038733;28;20359;-76
2023/02/08 01:55:44;;;;;;;17.00;10.80;;;;;;;;;;5021062;28;20287;-76
2023/02/08 01:58:11;;;;;;;16.30;9.93;;;;;;;;;;5038683;28;20272;-77
2023/02/08 02:00:37;;;;;;;17.43;9.90;;;;;;;;;;5038933;28;20276;-76
2023/02/08 02:03:04;;;;;;;16.97;10.40;;;;;;;;;;5038517;28;20276;-76
2023/02/08 02:05:35;;;;;;;20.43;10.80;;;;;;;;;;5040685;28;20128;-77
2023/02/08 02:08:01;;;;;;;21.03;10.30;;;;;;;;;;5025180;28;20291;-77
2023/02/08 02:10:28;;;;;;;17.10;10.10;;;;;;;;;;5037022;28;20307;-76
2023/02/08 02:12:56;;;;;;;20.27;10.27;;;;;;;;;;5039352;28;20269;-76
2023/02/08 02:15:22;;;;;;;21.17;10.97;;;;;;;;;;5038999;28;20369;-76
2023/02/08 02:17:48;;;;;;;22.43;11.63;;;;;;;;;;5026427;28;20728;-77
2023/02/08 02:20:23;;;;;;;20.27;10.77;;;;;;;;;;5040053;28;20264;-76
2023/02/08 02:23:08;;;;;;;21.77;10.27;;;;;;;;;;5026210;28;20272;-77
2023/02/08 02:25:53;;;;;;;17.97;10.27;;;;;;;;;;5022865;28;20307;-78
2023/02/08 02:28:48;;;;;;;19.43;11.07;;;;;;;;;;5038793;28;20289;-77
2023/02/08 02:31:14;;;;;;;18.73;11.07;;;;;;;;;;5037811;28;20275;-75
2023/02/08 02:33:43;;;;;;;18.93;10.77;;;;;;;;;;5038043;28;20288;-77
2023/02/08 02:36:27;;;;;;;19.43;10.90;;;;;;;;;;5039024;28;20091;-76
2023/02/08 02:38:56;;;;;;;18.37;10.00;;;;;;;;;;5023049;28;20268;-76
2023/02/08 02:44:52;;;;;;;20.13;11.17;;;;;;;;;;5029652;28;20843;-76
2023/02/08 02:47:23;;;;;;;21.27;10.97;;;;;;;;;;5030189;28;20264;-77
2023/02/08 02:49:52;;;;;;;20.13;10.93;;;;;;;;;;5045281;28;20264;-76
2023/02/08 02:52:24;;;;;;;19.33;10.87;;;;;;;;;;5033148;28;20759;-77
2023/02/08 02:54:54;;;;;;;19.88;10.65;;;;;;;;;;5037783;28;20593;-76
2023/02/08 02:57:24;;;;;;;18.53;10.53;;;;;;;;;;5033576;28;20053;-76
2023/02/08 02:59:52;;;;;;;19.67;10.57;;;;;;;;;;5033235;28;20291;-77
2023/02/08 03:02:18;;;;;;;18.10;10.47;;;;;;;;;;5047599;28;20613;-77
2023/02/08 03:04:44;;;;;;;21.10;10.60;;;;;;;;;;5033209;28;20257;-76
2023/02/08 03:07:13;;;;;;;18.63;10.57;;;;;;;;;;5049511;28;20670;-76
2023/02/08 03:09:45;;;;;;;18.97;11.00;;;;;;;;;;5034001;28;20439;-75
2023/02/08 03:12:20;;;;;;;19.58;10.75;;;;;;;;;;5068988;28;20383;-75
2023/02/08 03:14:57;;;;;;;20.33;11.27;;;;;;;;;;5056844;28;20036;-75
2023/02/08 03:17:39;;;;;;;22.40;11.67;;;;;;;;;;5049339;28;20252;-77
2023/02/08 03:20:09;;;;;;;20.30;10.57;;;;;;;;;;5052900;28;20729;-76
2023/02/08 03:22:35;;;;;;;22.93;11.13;;;;;;;;;;5047051;28;20739;-76
2023/02/08 03:25:05;;;;;;;25.40;11.93;;;;;;;;;;5048456;28;20295;-76
2023/02/08 03:27:39;;;;;;;22.50;12.13;;;;;;;;;;5052994;28;20067;-77
2023/02/08 03:30:12;;;;;;;18.67;10.57;;;;;;;;;;5042575;28;20303;-76
2023/02/08 03:32:42;;;;;;;23.15;11.68;;;;;;;;;;5036550;28;20644;-76
2023/02/08 03:35:31;;;;;;;20.57;12.00;;;;;;;;;;5033374;28;20041;-77
2023/02/08 03:38:18;;;;;;;22.60;11.33;;;;;;;;;;5013820;28;20281;-77
2023/02/08 03:40:49;;;;;;;22.17;12.03;;;;;;;;;;5051762;28;20334;-76
2023/02/08 03:43:21;;;;;;;19.10;10.80;;;;;;;;;;5053132;28;20261;-76
2023/02/08 03:45:51;;;;;;;21.15;11.90;;;;;;;;;;5036629;28;20280;-76
2023/02/08 03:48:18;;;;;;;21.03;11.93;;;;;;;;;;5055720;28;20096;-77
2023/02/08 03:50:46;;;;;;;22.90;11.87;;;;;;;;;;5037535;28;20303;-77
2023/02/08 03:53:17;;;;;;;23.53;11.37;;;;;;;;;;5036063;28;20260;-77
2023/02/08 03:55:45;;;;;;;22.17;11.83;;;;;;;;;;5037725;28;20307;-77
2023/02/08 03:58:31;;;;;;;22.57;12.17;;;;;;;;;;5037237;28;20260;-76
2023/02/08 04:01:23;;;;;;;19.97;11.13;;;;;;;;;;5052759;28;20267;-76
2023/02/08 04:03:52;;;;;;;23.50;12.35;;;;;;;;;;5022097;28;20322;-76
2023/02/08 04:06:18;;;;;;;22.27;11.03;;;;;;;;;;5036942;28;20454;-76
2023/02/08 04:08:46;;;;;;;19.70;10.80;;;;;;;;;;5036645;28;20296;-76
2023/02/08 04:11:12;;;;;;;20.93;11.43;;;;;;;;;;5036695;28;20267;-77
2023/02/08 04:13:38;;;;;;;19.30;10.90;;;;;;;;;;5035664;28;20581;-77
2023/02/08 04:16:04;;;;;;;22.03;11.63;;;;;;;;;;5041633;28;20283;-75
2023/02/08 04:18:30;;;;;;;20.30;11.20;;;;;;;;;;5038211;28;20026;-76
2023/02/08 04:20:56;;;;;;;24.97;11.47;;;;;;;;;;5040086;28;20282;-76
2023/02/08 04:23:22;;;;;;;20.80;11.03;;;;;;;;;;5025417;28;20295;-76
2023/02/08 04:25:48;;;;;;;16.33;10.73;;;;;;;;;;5040496;28;20121;-76
2023/02/08 04:28:17;;;;;;;19.20;10.80;;;;;;;;;;5038615;28;20713;-75
2023/02/08 04:30:43;;;;;;;18.60;10.73;;;;;;;;;;5038543;28;20033;-76
2023/02/08 04:33:10;;;;;;;16.63;9.83;;;;;;;;;;5043246;28;20276;-75
2023/02/08 04:35:36;;;;;;;21.67;11.00;;;;;;;;;;5039784;28;20628;-76
2023/02/08 04:38:02;;;;;;;18.47;9.87;;;;;;;;;;5026726;28;20276;-76
2023/02/08 04:40:28;;;;;;;17.20;9.70;;;;;;;;;;5044534;28;20067;-76
2023/02/08 04:42:54;;;;;;;18.23;9.77;;;;;;;;;;5040528;28;20033;-76
2023/02/08 04:45:20;;;;;;;19.40;10.87;;;;;;;;;;5025199;28;20331;-75
2023/02/08 04:47:46;;;;;;;18.80;10.60;;;;;;;;;;5040055;28;20061;-76
2023/02/08 04:50:12;;;;;;;19.17;11.23;;;;;;;;;;5023797;28;20322;-75
2023/02/08 04:52:38;;;;;;;20.23;10.53;;;;;;;;;;5043381;28;20323;-76
2023/02/08 04:55:04;;;;;;;16.93;10.57;;;;;;;;;;5040515;28;20048;-74
2023/02/08 04:57:33;;;;;;;17.73;10.07;;;;;;;;;;5025114;28;20060;-76
2023/02/08 04:59:59;;;;;;;19.93;10.97;;;;;;;;;;5046028;28;20273;-75
2023/02/08 05:02:25;;;;;;;18.53;10.50;;;;;;;;;;5040174;28;20275;-77
2023/02/08 05:04:51;;;;;;;17.47;9.93;;;;;;;;;;5024800;28;20272;-76
2023/02/08 05:07:17;;;;;;;23.13;10.70;;;;;;;;;;5041542;28;20025;-74
2023/02/08 05:09:43;;;;;;;19.47;10.23;;;;;;;;;;5025782;28;20710;-75
2023/02/08 05:12:09;;;;;;;21.20;11.37;;;;;;;;;;5024544;28;20759;-77
2023/02/08 05:14:35;;;;;;;19.70;10.27;;;;;;;;;;5041492;28;20279;-76
2023/02/08 05:17:00;;;;;;;18.93;11.17;;;;;;;;;;5040935;28;20139;-76
2023/02/08 05:19:26;;;;;;;21.47;11.17;;;;;;;;;;5026964;28;20280;-75
2023/02/08 05:21:52;;;;;;;22.23;10.77;;;;;;;;;;5023069;28;20458;-76
2023/02/08 05:24:18;;;;;;;21.00;10.97;;;;;;;;;;5040025;28;20121;-74
2023/02/08 05:26:44;;;;;;;18.97;10.87;;;;;;;;;;5038063;28;20460;-75
2023/02/08 05:29:10;;;;;;;21.50;10.67;;;;;;;;;;5038656;28;20316;-76
2023/02/08 05:31:39;;;;;;;22.13;10.27;;;;;;;;;;5023436;28;20334;-76
2023/02/08 05:34:05;;;;;;;20.90;10.47;;;;;;;;;;5039683;28;20041;-76
2023/02/08 05:36:31;;;;;;;20.73;10.23;;;;;;;;;;5022107;28;20284;-77
2023/02/08 05:38:57;;;;;;;22.23;10.23;;;;;;;;;;5022258;28;20037;-76
2023/02/08 05:41:22;;;;;;;23.30;10.27;;;;;;;;;;5022254;28;20367;-76
2023/02/08 05:43:51;;;;;;;21.23;11.37;;;;;;;;;;5038827;28;20790;-74
2023/02/08 05:46:17;;;;;;;19.60;10.43;;;;;;;;;;5038867;28;20037;-77
2023/02/08 05:48:43;;;;;;;19.43;10.33;;;;;;;;;;5038062;28;20345;-74
2023/02/08 05:51:11;;;;;;;22.57;11.87;;;;;;;;;;5039682;28;20283;-74
2023/02/08 05:53:37;;;;;;;20.13;10.13;;;;;;;;;;5038110;28;20608;-75
2023/02/08 05:56:03;;;;;;;18.60;10.40;;;;;;;;;;5039070;28;20840;-75
2023/02/08 05:58:29;;;;;;;20.03;11.10;;;;;;;;;;5022154;28;20276;-76
2023/02/08 06:00:55;;;;;;;19.83;10.93;;;;;;;;;;5039442;28;20268;-76
2023/02/08 06:03:21;;;;;;;17.83;10.43;;;;;;;;;;5039343;28;20783;-74
2023/02/08 06:05:48;;;;;;;20.17;10.70;;;;;;;;;;5038888;28;20370;-75
2023/02/08 06:08:14;;;;;;;20.77;11.10;;;;;;;;;;5038259;28;20770;-76
2023/02/08 06:10:44;;;;;;;19.27;10.57;;;;;;;;;;5022677;28;20289;-74
2023/02/08 06:13:13;;;;;;;21.87;11.20;;;;;;;;;;5038383;28;20293;-75
2023/02/08 06:15:39;;;;;;;23.93;10.80;;;;;;;;;;5038641;28;20280;-76
2023/02/08 06:18:05;;;;;;;25.13;11.47;;;;;;;;;;5039000;28;20283;-74
2023/02/08 06:20:31;;;;;;;17.17;10.53;;;;;;;;;;5037655;28;20357;-75
2023/02/08 06:22:57;;;;;;;17.40;10.10;;;;;;;;;;5024317;28;20272;-76
2023/02/08 06:25:23;;;;;;;20.63;11.60;;;;;;;;;;5038556;28;20026;-75
2023/02/08 06:27:49;;;;;;;20.63;10.83;;;;;;;;;;5039451;28;20041;-76
2023/02/08 06:30:15;;;;;;;21.03;11.03;;;;;;;;;;5039746;28;20040;-75
2023/02/08 06:32:43;;;;;;;23.30;11.40;;;;;;;;;;5023181;28;20314;-76
2023/02/08 06:35:09;;;;;;;24.33;10.90;;;;;;;;;;5026096;28;20287;-77
2023/02/08 06:37:35;;;;;;;20.30;10.60;;;;;;;;;;5038400;28;20428;-76
2023/02/08 06:40:01;;;;;;;22.40;10.77;;;;;;;;;;5038990;28;20898;-76
2023/02/08 06:42:27;;;;;;;20.53;11.00;;;;;;;;;;5037621;28;20661;-76
2023/02/08 06:44:54;;;;;;;21.23;10.73;;;;;;;;;;5040163;28;21839;-77
2023/02/08 06:47:21;;;;;;;19.10;11.30;;;;;;;;;;5025747;28;20315;-76
2023/02/08 06:49:47;;;;;;;23.73;12.10;;;;;;;;;;5024993;28;20281;-76
2023/02/08 06:52:15;;;;;;;19.60;11.30;;;;;;;;;;5041883;28;20268;-76
2023/02/08 06:54:42;;;;;;;23.97;11.37;;;;;;;;;;5024932;28;20029;-76
2023/02/08 06:57:16;;;;;;;18.77;11.27;;;;;;;;;;5025897;28;20292;-76
2023/02/08 06:59:42;;;;;;;17.43;10.07;;;;;;;;;;5041646;28;20287;-76
2023/02/08 07:02:12;;;;;;;22.17;10.23;;;;;;;;;;5024320;28;20367;-76
2023/02/08 07:04:38;;;;;;;16.83;9.63;;;;;;;;;;5043179;28;20343;-76
2023/02/08 07:07:06;;;;;;;22.73;11.27;;;;;;;;;;5043637;28;20858;-77
2023/02/08 07:09:35;;;;;;;19.47;10.00;;;;;;;;;;5024379;28;20295;-76
2023/02/08 07:12:05;;;;;;;21.53;10.90;;;;;;;;;;5041253;28;20315;-76
2023/02/08 07:14:35;;;;;;;15.07;9.30;;;;;;;;;;5045838;28;20351;-77
2023/02/08 07:17:04;;;;;;;16.33;9.00;;;;;;;;;;5024888;28;20338;-77
2023/02/08 07:19:30;;;;;;;24.83;11.70;;;;;;;;;;5039796;28;20273;-77
2023/02/08 07:21:56;;;;;;;19.83;10.37;;;;;;;;;;5042007;28;20306;-77
2023/02/08 07:24:23;;;;;;;20.27;9.97;;;;;;;;;;5026160;28;20276;-76
2023/02/08 07:26:49;;;;;;;16.83;9.50;;;;;;;;;;5027748;28;20291;-77
2023/02/08 07:29:17;;;;;;;21.53;10.20;;;;;;;;;;5042517;28;21437;-76
2023/02/08 07:31:43;;;;;;;19.50;9.63;;;;;;;;;;5042658;28;20058;-77
2023/02/08 07:34:09;;;;;;;20.23;10.07;;;;;;;;;;5047147;28;20268;-75
2023/02/08 07:36:35;;;;;;;14.60;8.20;;;;;;;;;;5042189;28;20289;-76
2023/02/08 07:39:01;;;;;;;21.37;9.77;;;;;;;;;;5041325;28;20095;-77
2023/02/08 07:41:29;;;;;;;32.50;12.93;;;;;;;;;;5042045;28;20412;-76
2023/02/08 07:43:55;;;;;;;24.27;12.03;;;;;;;;;;5025164;28;20276;-76
2023/02/08 07:46:21;;;;;;;19.77;10.03;;;;;;;;;;5039952;28;20794;-76
2023/02/08 07:48:48;;;;;;;28.17;14.43;;;;;;;;;;5023999;28;20033;-76
2023/02/08 07:51:15;;;;;;;19.37;8.90;;;;;;;;;;5023523;28;20367;-76
2023/02/08 07:53:41;;;;;;;18.07;8.67;;;;;;;;;;5042876;28;21255;-77
2023/02/08 07:56:09;;;;;;;16.50;7.77;;;;;;;;;;5039195;28;20284;-75
2023/02/08 07:58:35;;;;;;;19.73;8.93;;;;;;;;;;5027856;28;20359;-77
2023/02/08 08:01:01;;;;;;;15.17;8.80;;;;;;;;;;5026015;28;20323;-75
2023/02/08 08:03:27;;;;;;;18.63;8.57;;;;;;;;;;5041989;28;20903;-75
2023/02/08 08:05:55;;;;;;;16.03;9.07;;;;;;;;;;5039912;28;20038;-77
2023/02/08 08:08:24;;;;;;;20.90;7.90;;;;;;;;;;5041171;28;20335;-77
2023/02/08 08:10:50;;;;;;;18.20;8.87;;;;;;;;;;5039217;28;20299;-74
2023/02/08 08:13:16;;;;;;;15.00;7.77;;;;;;;;;;5026100;28;20296;-76
2023/02/08 08:15:44;;;;;;;16.73;7.90;;;;;;;;;;5026834;28;20377;-76
2023/02/08 08:18:10;;;;;;;19.30;9.40;;;;;;;;;;5040225;28;20060;-77
2023/02/08 08:20:36;;;;;;;14.23;7.43;;;;;;;;;;5042218;28;20327;-77
2023/02/08 08:23:03;;;;;;;16.30;8.20;;;;;;;;;;5040419;28;20029;-74
2023/02/08 08:25:32;;;;;;;21.07;8.07;;;;;;;;;;5040671;28;20029;-75
2023/02/08 08:27:58;;;;;;;16.90;8.60;;;;;;;;;;5028636;28;20362;-76
2023/02/08 08:30:26;;;;;;;17.10;7.60;;;;;;;;;;5041749;28;21255;-76
2023/02/08 08:32:53;;;;;;;18.50;8.40;;;;;;;;;;5025191;28;20870;-75
2023/02/08 08:35:19;;;;;;;16.90;8.23;;;;;;;;;;5041782;28;20330;-76
2023/02/08 08:37:45;;;;;;;14.33;8.33;;;;;;;;;;5039833;28;20308;-76
2023/02/08 08:40:11;;;;;;;18.77;8.77;;;;;;;;;;5041064;28;20279;-76
2023/02/08 08:42:38;;;;;;;17.07;8.03;;;;;;;;;;5029470;28;20295;-76
2023/02/08 08:45:05;;;;;;;15.53;8.00;;;;;;;;;;5034304;28;20609;-76
2023/02/08 08:47:31;;;;;;;16.33;7.83;;;;;;;;;;5046349;28;20272;-76
2023/02/08 08:49:57;;;;;;;15.83;8.50;;;;;;;;;;5032340;28;20351;-75
2023/02/08 08:52:23;;;;;;;14.93;8.13;;;;;;;;;;5027714;28;20410;-76
2023/02/08 08:54:49;;;;;;;15.13;7.23;;;;;;;;;;5035344;28;20273;-75
2023/02/08 08:57:15;;;;;;;13.90;8.00;;;;;;;;;;5050868;28;20497;-75
2023/02/08 08:59:41;;;;;;;15.10;7.93;;;;;;;;;;5034757;28;20030;-77
2023/02/08 09:02:07;;;;;;;13.93;6.83;;;;;;;;;;5050249;28;20272;-77
2023/02/08 09:04:33;;;;;;;15.10;6.97;;;;;;;;;;5059179;28;20371;-77
2023/02/08 09:06:59;;;;;;;11.33;6.77;;;;;;;;;;5035395;28;20431;-76
2023/02/08 09:09:27;;;;;;;10.43;6.00;;;;;;;;;;5034414;28;20314;-76
2023/02/08 09:11:53;;;;;;;15.80;6.70;;;;;;;;;;5033765;28;20623;-77
2023/02/08 09:14:22;;;;;;;13.27;7.10;;;;;;;;;;5034744;28;20264;-77
2023/02/08 09:16:48;;;;;;;11.93;7.50;;;;;;;;;;5030272;28;20333;-77
2023/02/08 09:19:15;;;;;;;12.33;7.27;;;;;;;;;;5035650;28;20283;-76
2023/02/08 09:21:41;;;;;;;12.83;6.23;;;;;;;;;;5050232;28;20290;-76
2023/02/08 09:24:07;;;;;;;10.43;6.47;;;;;;;;;;5039239;28;20826;-76
2023/02/08 09:26:34;;;;;;;13.23;7.03;;;;;;;;;;5054250;28;20739;-77
2023/02/08 09:29:00;;;;;;;12.73;7.10;;;;;;;;;;5054445;28;20350;-76
2023/02/08 09:31:35;;;;;;;9.50;6.07;;;;;;;;;;5031067;28;20725;-76
2023/02/08 09:34:01;;;;;;;10.90;6.60;;;;;;;;;;5042567;28;20424;-76
2023/02/08 09:36:29;;;;;;;11.00;6.40;;;;;;;;;;5034613;28;20284;-76
2023/02/08 09:38:59;;;;;;;12.13;7.17;;;;;;;;;;5028767;28;20276;-76
2023/02/08 09:41:25;;;;;;;14.20;6.67;;;;;;;;;;5034596;28;20701;-76
2023/02/08 09:43:59;;;;;;;9.77;5.60;;;;;;;;;;5055538;28;20363;-77
2023/02/08 09:46:27;;;;;;;12.03;6.10;;;;;;;;;;5043285;28;20070;-77
2023/02/08 09:48:55;;;;;;;12.40;6.73;;;;;;;;;;5047794;28;20268;-76
2023/02/08 09:51:21;;;;;;;12.20;7.17;;;;;;;;;;5031868;28;20268;-76
2023/02/08 09:53:54;;;;;;;46.07;23.47;;;;;;;;;;5034642;28;20338;-77
2023/02/08 09:56:26;;;;;;;26.70;14.17;;;;;;;;;;5034311;28;20654;-77
2023/02/08 09:58:52;;;;;;;18.50;10.83;;;;;;;;;;5037299;28;20272;-76
2023/02/08 10:01:29;;;;;;;13.47;8.47;;;;;;;;;;5032920;28;20342;-76
2023/02/08 10:04:08;;;;;;;16.43;9.07;;;;;;;;;;5036431;28;20355;-77
2023/02/08 10:06:34;;;;;;;11.77;6.60;;;;;;;;;;5057096;28;20778;-76
2023/02/08 10:09:03;;;;;;;13.57;6.70;;;;;;;;;;5060875;28;20273;-77
2023/02/08 10:11:32;;;;;;;13.57;6.43;;;;;;;;;;5052403;28;20363;-76
2023/02/08 10:14:01;;;;;;;10.33;5.83;;;;;;;;;;5049592;28;20291;-76
2023/02/08 10:16:33;;;;;;;11.03;5.83;;;;;;;;;;5034565;28;20705;-76
2023/02/08 10:19:08;;;;;;;12.23;6.60;;;;;;;;;;5026857;28;20333;-77
2023/02/08 10:21:36;;;;;;;11.10;6.57;;;;;;;;;;5045330;28;20041;-76
2023/02/08 10:24:17;;;;;;;10.70;5.57;;;;;;;;;;5028802;28;20292;-75
2023/02/08 10:26:45;;;;;;;11.27;6.10;;;;;;;;;;5030044;28;20748;-75
2023/02/08 10:29:31;;;;;;;10.73;5.97;;;;;;;;;;5046204;28;20268;-75
2023/02/08 10:32:14;;;;;;;10.57;6.20;;;;;;;;;;5046552;28;20278;-76
2023/02/08 10:34:49;;;;;;;10.90;6.57;;;;;;;;;;5046922;28;20282;-76
2023/02/08 10:37:15;;;;;;;11.97;6.47;;;;;;;;;;5046686;28;20087;-75
2023/02/08 10:39:41;;;;;;;11.23;6.03;;;;;;;;;;5046339;28;20021;-77
2023/02/08 10:42:13;;;;;;;12.30;6.90;;;;;;;;;;5031045;28;20094;-77
2023/02/08 10:44:54;;;;;;;9.47;5.53;;;;;;;;;;5047834;28;20288;-76
2023/02/08 10:47:37;;;;;;;10.17;6.00;;;;;;;;;;5028532;28;21932;-75
2023/02/08 10:50:19;;;;;;;10.63;6.10;;;;;;;;;;5047124;28;20032;-75
2023/02/08 10:52:45;;;;;;;12.13;6.23;;;;;;;;;;5031737;28;20033;-77
2023/02/08 10:55:15;;;;;;;9.07;5.60;;;;;;;;;;5047450;28;20268;-76
2023/02/08 10:57:41;;;;;;;14.97;6.47;;;;;;;;;;5026847;28;20041;-77
2023/02/08 11:00:11;;;;;;;13.27;6.50;;;;;;;;;;5047173;28;20024;-77
2023/02/08 11:02:40;;;;;;;11.63;6.90;;;;;;;;;;5047094;28;20028;-77
2023/02/08 11:05:29;;;;;;;10.53;6.30;;;;;;;;;;5048099;28;20112;-75
2023/02/08 11:08:09;;;;;;;11.83;6.40;;;;;;;;;;5024679;28;20065;-76
2023/02/08 11:10:39;;;;;;;13.87;5.77;;;;;;;;;;5029704;28;20061;-77
2023/02/08 11:13:05;;;;;;;8.90;5.53;;;;;;;;;;5046250;28;20030;-76
2023/02/08 11:15:43;;;;;;;10.80;5.80;;;;;;;;;;5048063;28;20030;-77
2023/02/08 11:18:21;;;;;;;12.03;6.57;;;;;;;;;;5030858;28;20076;-76
2023/02/08 11:20:48;;;;;;;12.53;5.83;;;;;;;;;;5046338;28;20037;-75
2023/02/08 11:23:20;;;;;;;10.87;6.43;;;;;;;;;;5045755;28;20026;-75
2023/02/08 11:25:46;;;;;;;10.25;4.93;;;;;;;;;;5046616;28;20052;-76
2023/02/08 11:28:41;;;;;;;13.50;5.90;;;;;;;;;;5031706;28;20029;-76
2023/02/08 11:31:19;;;;;;;7.80;5.07;;;;;;;;;;5023560;28;20120;-77
2023/02/08 11:34:02;;;;;;;9.70;6.00;;;;;;;;;;5043066;28;20030;-77
2023/02/08 11:36:29;;;;;;;8.13;5.43;;;;;;;;;;5025161;28;20033;-77
2023/02/08 11:38:55;;;;;;;11.77;5.70;;;;;;;;;;5041089;28;20048;-76
2023/02/08 11:41:22;;;;;;;11.10;5.20;;;;;;;;;;5045481;28;20030;-78
2023/02/08 11:44:07;;;;;;;9.20;4.80;;;;;;;;;;5044642;28;20862;-78
2023/02/08 11:46:35;;;;;;;8.23;5.17;;;;;;;;;;5044318;28;20033;-76
2023/02/08 11:49:02;;;;;;;10.97;5.40;;;;;;;;;;5044245;28;20048;-77
2023/02/08 11:51:28;;;;;;;11.43;5.63;;;;;;;;;;5043192;28;21803;-77
2023/02/08 11:53:55;;;;;;;10.97;5.37;;;;;;;;;;5042007;28;20065;-77
2023/02/08 11:56:29;;;;;;;10.63;5.03;;;;;;;;;;5041837;28;20399;-77
2023/02/08 11:59:15;;;;;;;7.83;4.93;;;;;;;;;;5042147;28;20446;-78
2023/02/08 12:01:41;;;;;;;8.10;4.67;;;;;;;;;;5031534;28;21683;-78
2023/02/08 12:04:09;;;;;;;14.30;5.33;;;;;;;;;;5029414;28;20034;-78
2023/02/08 12:06:56;;;;;;;7.63;4.63;;;;;;;;;;5045419;28;20041;-78
2023/02/08 12:09:22;;;;;;;7.53;4.57;;;;;;;;;;5047220;28;20034;-78
2023/02/08 12:11:50;;;;;;;9.73;4.13;;;;;;;;;;5042266;28;20033;-78
2023/02/08 12:14:22;;;;;;;9.43;4.97;;;;;;;;;;5043589;28;20426;-77
2023/02/08 12:16:57;;;;;;;10.75;4.55;;;;;;;;;;5044542;28;20057;-78
2023/02/08 12:19:30;;;;;;;8.77;4.20;;;;;;;;;;5027143;28;20056;-78
2023/02/08 12:21:59;;;;;;;11.40;4.07;;;;;;;;;;5025544;28;20057;-78
2023/02/08 12:24:31;;;;;;;8.43;4.00;;;;;;;;;;5044672;28;20033;-76
2023/02/08 12:26:57;;;;;;;6.38;4.05;;;;;;;;;;5027895;28;20025;-77
2023/02/08 12:29:26;;;;;;;7.57;3.60;;;;;;;;;;5043498;28;20041;-76
2023/02/08 12:31:55;;;;;;;7.30;3.83;;;;;;;;;;5044283;28;20034;-76
2023/02/08 12:34:27;;;;;;;8.27;4.17;;;;;;;;;;5030071;28;20660;-76
2023/02/08 12:42:53;;;;;;;7.30;3.40;;;;;;;;;;5027969;28;20037;-76
2023/02/08 12:45:36;;;;;;;6.97;4.03;;;;;;;;;;5041633;28;20033;-77
2023/02/08 12:48:11;;;;;;;6.17;3.57;;;;;;;;;;5042323;28;20034;-78
2023/02/08 12:50:37;;;;;;;8.50;3.43;;;;;;;;;;5025397;28;20022;-77
2023/02/08 12:53:10;;;;;;;7.77;3.70;;;;;;;;;;5041480;28;20043;-77
2023/02/08 12:55:38;;;;;;;5.77;3.30;;;;;;;;;;5026670;28;20037;-78
2023/02/08 12:58:21;;;;;;;7.03;3.73;;;;;;;;;;5024858;28;20033;-77
2023/02/08 13:00:48;;;;;;;7.90;3.40;;;;;;;;;;5028265;28;20033;-77
2023/02/08 13:03:22;;;;;;;5.40;3.20;;;;;;;;;;5043139;28;20436;-77
2023/02/08 13:05:49;;;;;;;7.23;3.70;;;;;;;;;;5043913;28;20075;-77
2023/02/08 13:08:17;;;;;;;6.17;3.57;;;;;;;;;;5043274;28;20037;-78
2023/02/08 13:10:47;;;;;;;6.10;3.43;;;;;;;;;;5044459;28;20122;-77
2023/02/08 13:13:21;;;;;;;8.13;3.43;;;;;;;;;;5043310;28;20959;-76
2023/02/08 13:15:53;;;;;;;6.43;3.33;;;;;;;;;;5042447;28;20471;-77
2023/02/08 13:18:22;;;;;;;10.00;3.67;;;;;;;;;;5041207;28;20128;-77
2023/02/08 13:20:48;;;;;;;4.37;2.97;;;;;;;;;;5027600;28;20022;-77
2023/02/08 13:23:26;;;;;;;5.93;3.10;;;;;;;;;;5027901;28;20025;-78
2023/02/08 13:25:55;;;;;;;6.23;3.80;;;;;;;;;;5042157;28;20391;-77
2023/02/08 13:28:22;;;;;;;6.43;3.83;;;;;;;;;;5028544;28;20052;-76
2023/02/08 13:30:53;;;;;;;10.57;5.60;;;;;;;;;;5025671;28;20481;-78
2023/02/08 13:33:25;;;;;;;10.13;5.30;;;;;;;;;;5042058;28;20091;-78
2023/02/08 13:35:52;;;;;;;4.50;3.15;;;;;;;;;;5040088;28;20049;-78
2023/02/08 13:38:24;;;;;;;6.57;4.10;;;;;;;;;;5023648;28;20033;-78
2023/02/08 13:41:01;;;;;;;5.80;4.35;;;;;;;;;;5024954;28;20025;-77
2023/02/08 13:43:35;;;;;;;5.50;3.40;;;;;;;;;;5040169;28;20124;-77
2023/02/08 13:46:04;;;;;;;7.07;3.50;;;;;;;;;;5025513;28;20360;-77
2023/02/08 13:48:40;;;;;;;15.70;3.63;;;;;;;;;;5024572;28;20037;-77
2023/02/08 13:51:06;;;;;;;7.10;3.23;;;;;;;;;;5025661;28;20037;-78
2023/02/08 13:53:56;;;;;;;6.60;2.90;;;;;;;;;;5042913;28;20043;-77
2023/02/08 13:56:41;;;;;;;3.67;2.53;;;;;;;;;;5027812;28;20045;-77
2023/02/08 13:59:26;;;;;;;4.70;2.93;;;;;;;;;;5043649;28;20406;-77
2023/02/08 14:02:11;;;;;;;6.33;3.60;;;;;;;;;;5043584;28;20033;-78
2023/02/08 14:04:47;;;;;;;5.23;2.73;;;;;;;;;;5025300;28;20033;-76
2023/02/08 14:07:22;;;;;;;2.97;2.63;;;;;;;;;;5040439;28;20087;-77
2023/02/08 14:09:57;;;;;;;5.80;2.53;;;;;;;;;;5042118;28;20111;-77
2023/02/08 14:12:30;;;;;;;5.47;2.80;;;;;;;;;;5041801;28;20037;-77
2023/02/08 14:15:15;;;;;;;5.50;2.90;;;;;;;;;;5038619;28;20121;-79
2023/02/08 14:17:42;;;;;;;5.63;2.63;;;;;;;;;;5043560;28;20022;-78
2023/02/08 14:20:17;;;;;;;5.30;3.27;;;;;;;;;;5041174;28;20032;-78
2023/02/08 14:22:48;;;;;;;4.50;3.00;;;;;;;;;;5040617;28;20120;-77
2023/02/08 14:25:18;;;;;;;8.00;3.30;;;;;;;;;;5041790;28;20116;-77
2023/02/08 14:27:57;;;;;;;6.37;2.60;;;;;;;;;;5043433;28;20359;-78
2023/02/08 14:30:34;;;;;;;5.90;3.03;;;;;;;;;;5041298;28;20362;-77
2023/02/08 14:33:06;;;;;;;5.77;3.60;;;;;;;;;;5042339;28;20088;-78
2023/02/08 14:35:35;;;;;;;7.25;4.20;;;;;;;;;;5023707;28;20033;-78
2023/02/08 14:38:20;;;;;;;6.07;2.77;;;;;;;;;;5027718;28;20067;-78
2023/02/08 14:40:50;;;;;;;6.67;3.07;;;;;;;;;;5043382;28;20025;-78
2023/02/08 14:43:19;;;;;;;5.77;2.93;;;;;;;;;;5027121;28;20097;-79
2023/02/08 14:45:46;;;;;;;8.07;2.70;;;;;;;;;;5034158;28;20115;-79
2023/02/08 14:48:13;;;;;;;6.20;3.37;;;;;;;;;;5037015;28;20069;-78